地図

経路データ

SID SEASON NUMBER BASIN SUBBASIN NAME ISO_TIME NATURE LAT LON WMO_WIND WMO_PRES WMO_AGENCY TRACK_TYPE DIST2LAND LANDFALL IFLAG USA_AGENCY USA_ATCF_ID USA_LAT USA_LON USA_RECORD USA_STATUS USA_WIND USA_PRES USA_SSHS USA_R34_NE USA_R34_SE USA_R34_SW USA_R34_NW USA_R50_NE USA_R50_SE USA_R50_SW USA_R50_NW USA_R64_NE USA_R64_SE USA_R64_SW USA_R64_NW USA_POCI USA_ROCI USA_RMW USA_EYE TOKYO_LAT TOKYO_LON TOKYO_GRADE TOKYO_WIND TOKYO_PRES TOKYO_R50_DIR TOKYO_R50_LONG TOKYO_R50_SHORT TOKYO_R30_DIR TOKYO_R30_LONG TOKYO_R30_SHORT TOKYO_LAND CMA_LAT CMA_LON CMA_CAT CMA_WIND CMA_PRES HKO_LAT HKO_LON HKO_CAT HKO_WIND HKO_PRES NEWDELHI_LAT NEWDELHI_LON NEWDELHI_GRADE NEWDELHI_WIND NEWDELHI_PRES NEWDELHI_CI NEWDELHI_DP NEWDELHI_POCI REUNION_LAT REUNION_LON REUNION_TYPE REUNION_WIND REUNION_PRES REUNION_TNUM REUNION_CI REUNION_RMW REUNION_R34_NE REUNION_R34_SE REUNION_R34_SW REUNION_R34_NW REUNION_R50_NE REUNION_R50_SE REUNION_R50_SW REUNION_R50_NW REUNION_R64_NE REUNION_R64_SE REUNION_R64_SW REUNION_R64_NW BOM_LAT BOM_LON BOM_TYPE BOM_WIND BOM_PRES BOM_TNUM BOM_CI BOM_RMW BOM_R34_NE BOM_R34_SE BOM_R34_SW BOM_R34_NW BOM_R50_NE BOM_R50_SE BOM_R50_SW BOM_R50_NW BOM_R64_NE BOM_R64_SE BOM_R64_SW BOM_R64_NW BOM_ROCI BOM_POCI BOM_EYE BOM_POS_METHOD BOM_PRES_METHOD NADI_LAT NADI_LON NADI_CAT NADI_WIND NADI_PRES WELLINGTON_LAT WELLINGTON_LON WELLINGTON_WIND WELLINGTON_PRES DS824_LAT DS824_LON DS824_STAGE DS824_WIND DS824_PRES TD9636_LAT TD9636_LON TD9636_STAGE TD9636_WIND TD9636_PRES TD9635_LAT TD9635_LON TD9635_WIND TD9635_PRES TD9635_ROCI NEUMANN_LAT NEUMANN_LON NEUMANN_CLASS NEUMANN_WIND NEUMANN_PRES MLC_LAT MLC_LON MLC_CLASS MLC_WIND MLC_PRES USA_GUST BOM_GUST BOM_GUST_PER REUNION_GUST REUNION_GUST_PER USA_SEAHGT USA_SEARAD_NE USA_SEARAD_SE USA_SEARAD_SW USA_SEARAD_NW STORM_SPEED STORM_DIR
1989279N07151 1989 111 WP MM DAN 1989-10-06 00:00:00 NR 6.80000 151.400 main 1066 1065 O_________O___ jtwc_wp WP291989 6.80000 151.400 15 -1 6.80000 151.400 1 15 13 293
1989279N07151 1989 111 WP MM DAN 1989-10-06 03:00:00 NR 7.04911 150.795 main 1087 1087 P_________P___ WP291989 7.04765 150.808 15 -1 7.05057 150.783 1 15 13 292
1989279N07151 1989 111 WP MM DAN 1989-10-06 06:00:00 NR 7.30030 150.181 main 1098 1095 O_________P___ jtwc_wp WP291989 7.30000 150.200 15 -1 7.30061 150.163 1 15 13 292
1989279N07151 1989 111 WP MM DAN 1989-10-06 09:00:00 NR 7.55387 149.551 main 1114 1107 P_________P___ WP291989 7.55740 149.565 15 -1 7.55034 149.536 1 15 14 291
1989279N07151 1989 111 WP MM DAN 1989-10-06 12:00:00 NR 7.80000 148.900 main 1121 1120 O_________O___ jtwc_wp WP291989 7.80000 148.900 15 -1 7.80000 148.900 1 15 14 290
1989279N07151 1989 111 WP MM DAN 1989-10-06 15:00:00 NR 8.02411 148.223 main 1135 1134 P_________P___ WP291989 7.99999 148.192 17 -1 8.04822 148.253 1 16 14 288
1989279N07151 1989 111 WP MM DAN 1989-10-06 18:00:00 NR 8.24361 147.550 main 1154 1154 O_________P___ jtwc_wp WP291989 8.20000 147.500 20 -1 8.28721 147.600 1 17 14 290
1989279N07151 1989 111 WP MM DAN 1989-10-06 21:00:00 NR 8.48246 146.916 main 1187 1187 P_________P___ WP291989 8.45734 146.885 20 -1 8.50759 146.947 1 18 13 290
1989279N07151 1989 111 WP MM DAN 1989-10-07 00:00:00 NR 8.70000 146.300 main 1210 1210 O_________O___ jtwc_wp WP291989 8.70000 146.300 20 -1 8.70000 146.300 1 20 13 287
1989279N07151 1989 111 WP MM DAN 1989-10-07 03:00:00 NR 8.86082 145.689 main 1236 1236 P_________P___ WP291989 8.87237 145.707 20 -1 8.84926 145.671 1 20 12 283
1989279N07151 1989 111 WP MM DAN 1989-10-07 06:00:00 NR 8.98596 145.075 main 1254 1254 O_________P___ jtwc_wp WP291989 9.00000 145.100 20 -1 8.97192 145.049 1 20 13 281
1989279N07151 1989 111 WP MM DAN 1989-10-07 09:00:00 NR 9.09178 144.443 main 1278 1278 P_________P___ WP291989 9.09992 144.457 20 -1 9.08363 144.428 1 20 13 280
1989279N07151 1989 111 WP MM DAN 1989-10-07 12:00:00 NR 9.20000 143.800 main 1303 1303 O_________O___ jtwc_wp WP291989 9.20000 143.800 20 -1 9.20000 143.800 1 20 13 281
1989279N07151 1989 111 WP MM DAN 1989-10-07 15:00:00 NR 9.34443 143.158 main 1331 1329 P_________P___ WP291989 9.34238 143.150 20 -1 9.34648 143.165 1 21 13 283
1989279N07151 1989 111 WP MM DAN 1989-10-07 18:00:00 NR 9.49972 142.511 main 1332 1320 O_________P___ jtwc_wp WP291989 9.50000 142.500 20 -1 9.49943 142.522 1 22 13 284
1989279N07151 1989 111 WP MM DAN 1989-10-07 21:00:00 NR 9.65498 141.867 main 1330 1306 P_________P___ WP291989 9.65729 141.865 22 -1 9.65268 141.868 1 23 14 278
1989279N07151 1989 111 WP MM DAN 1989-10-08 00:00:00 TS 9.71111 141.067 1008 tokyo main 1306 1273 OO________O___ jtwc_wp WP291989 9.80000 141.200 25 -1 9.00000 140.000 2 1008 0 0 0 9.80000 141.200 1 25 16 273
1989279N07151 1989 111 WP MM DAN 1989-10-08 03:00:00 TS 9.72437 140.289 main 1273 1256 PP________P___ WP291989 9.90002 140.450 25 -1 8.95013 139.500 2 1006 0 0 9.93584 140.522 1 25 14 273
1989279N07151 1989 111 WP MM DAN 1989-10-08 06:00:00 TS 9.77980 139.610 1004 tokyo main 1256 1238 OO_O______P___ jtwc_wp WP291989 10.0000 139.700 25 -1 9.00000 139.000 2 1004 0 0 0 10.1000 140.200 TD 25 1000 10.0644 139.830 1 25 13 277
1989279N07151 1989 111 WP MM DAN 1989-10-08 09:00:00 TS 9.87544 139.026 main 1246 1239 PP_P______P___ WP291989 10.1497 139.050 25 -1 9.21243 138.500 2 1003 0 0 10.0323 139.840 TD 27 1000 10.1858 139.122 1 25 11 283
1989279N07151 1989 111 WP MM DAN 1989-10-08 12:00:00 TS 10.0250 138.525 1002 tokyo main 1241 1236 OOOO______O___ jtwc_wp WP291989 10.3000 138.400 25 -1 9.50000 138.000 2 1002 0 0 0 10.0000 139.300 1 29 1000 10.0000 139.300 TD 30 1000 10.3000 138.400 1 25 12 283
1989279N07151 1989 111 WP MM DAN 1989-10-08 15:00:00 TS 10.1338 137.879 main 1236 1198 PPPP______P___ WP291989 10.4074 137.665 27 -1 9.74993 137.500 2 1001 0 0 10.0207 138.277 1 29 1000 10.0277 138.467 TD 32 997 10.4065 137.684 1 28 14 279
1989279N07151 1989 111 WP MM DAN 1989-10-08 18:00:00 TS 10.2487 137.121 1000 tokyo main 1187 1118 OOOO______P___ jtwc_wp WP291989 10.5000 136.900 30 -1 10.0000 137.000 2 1000 0 0 0 10.1000 137.300 1 29 1000 10.1000 137.500 TS 35 995 10.5064 136.952 1 32 15 280
1989279N07151 1989 111 WP MM DAN 1989-10-08 21:00:00 TS 10.3813 136.385 main 1118 1037 PPPP______P___ WP291989 10.5997 136.165 35 -1 10.2495 136.575 2 998 0 0 10.2771 136.393 1 33 997 10.1773 136.600 TS 37 992 10.6032 136.194 1 36 15 281
1989279N07151 1989 111 WP MM DAN 1989-10-09 00:00:00 TS 10.5400 135.600 40 996 tokyo main 1037 956 OOOO______O___ jtwc_wp WP291989 10.7000 135.400 40 0 10.5000 136.000 3 40 996 0 9 60 60 0 10.5000 135.500 2 38 995 10.3000 135.700 TS 40 990 10.7000 135.400 2 40 17 281
1989279N07151 1989 111 WP MM DAN 1989-10-09 03:00:00 TS 10.7089 134.710 main 945 854 PPPP______P___ WP291989 10.7998 134.572 45 -1 10.7503 135.067 3 42 993 0 9 130 130 10.7225 134.528 2 38 995 10.4847 134.807 TS 42 990 10.7873 134.573 2 43 18 281
1989279N07151 1989 111 WP MM DAN 1989-10-09 06:00:00 TS 10.8753 133.782 45 990 tokyo main 854 761 OOOO______P___ jtwc_wp WP291989 10.9000 133.700 50 0 11.0000 134.000 3 45 990 0 9 200 200 0 10.9000 133.600 2 38 995 10.7000 133.900 TS 45 990 10.8767 133.709 2 47 18 280
1989279N07151 1989 111 WP MM DAN 1989-10-09 09:00:00 TS 11.0123 132.887 main 761 673 PPPP______P___ WP291989 10.9922 132.815 52 -1 11.2648 133.020 3 47 987 0 9 200 200 10.9270 132.827 2 43 990 10.8998 132.957 TS 47 987 10.9778 132.816 2 51 18 279
1989279N07151 1989 111 WP MM DAN 1989-10-09 12:00:00 TS 11.1600 132.000 50 985 tokyo main 673 590 OOOO______O___ jtwc_wp WP291989 11.1000 131.900 55 0 11.5000 132.100 4 50 985 0 9 200 200 0 11.0000 132.100 3 48 985 11.1000 132.000 STS 50 985 11.1000 131.900 2 55 18 281
1989279N07151 1989 111 WP MM DAN 1989-10-09 15:00:00 TS 11.3489 131.126 main 579 494 PPPP______P___ WP291989 11.2348 130.957 55 -1 11.6643 131.307 4 52 982 0 9 200 200 11.3270 131.345 3 53 982 11.2922 131.050 STS 55 980 11.2264 130.970 2 56 18 283
1989279N07151 1989 111 WP MM DAN 1989-10-09 18:00:00 TS 11.5556 130.224 55 980 tokyo main 484 389 OOOO______P___ jtwc_wp WP291989 11.4000 130.000 55 0 11.8000 130.500 4 55 980 9 30 30 9 200 200 0 11.7000 130.500 3 58 980 11.5000 130.100 STS 60 975 11.3778 130.020 2 57 19 282
1989279N07151 1989 111 WP MM DAN 1989-10-09 21:00:00 TS 11.7530 129.251 main 392 290 PPPP______P___ WP291989 11.5772 129.050 55 -1 11.9424 129.530 4 57 977 9 45 45 9 225 225 11.9302 129.472 3 58 980 11.7498 129.143 STS 60 975 11.5653 129.060 2 58 20 282
1989279N07151 1989 111 WP MM DAN 1989-10-10 00:00:00 TS 11.9600 128.260 60 975 tokyo main 294 206 OOOO______O___ jtwc_wp WP291989 11.8000 128.100 XX 55 -5 12.1000 128.500 4 60 975 9 60 60 9 250 250 0 12.1000 128.400 3 58 980 12.0000 128.200 STS 60 975 11.8000 128.100 2 60 19 283
1989279N07151 1989 111 WP MM DAN 1989-10-10 03:00:00 TS 12.1737 127.313 main 195 100 PPPP______P___ WP291989 12.0922 127.150 60 -1 12.2695 127.515 4 62 972 9 60 60 9 250 250 12.2194 127.449 3 63 975 12.1921 127.300 STS 62 975 12.0955 127.150 2 62 19 284
1989279N07151 1989 111 WP MM DAN 1989-10-10 06:00:00 TS 12.4200 126.360 65 970 tokyo main 100 31 OOOO______O___ jtwc_wp WP291989 12.4000 126.200 65 -1 12.5000 126.500 5 65 970 9 60 60 9 250 250 0 12.4000 126.500 4 68 970 12.4000 126.400 T 65 975 12.4000 126.200 3 65 20 286
1989279N07151 1989 111 WP MM DAN 1989-10-10 09:00:00 TS 12.7254 125.361 main 31 24 PPPP______P___ WP291989 12.6498 125.235 65 -1 12.8498 125.408 5 62 972 9 60 60 9 250 250 12.7923 125.458 4 68 970 12.6847 125.457 T 65 975 12.6505 125.245 3 65 21 288
1989279N07151 1989 111 WP MM DAN 1989-10-10 12:00:00 TS 13.0400 124.360 60 975 tokyo main 32 0 OOOO______O___ jtwc_wp WP291989 12.9000 124.300 65 -1 13.2000 124.300 4 60 975 9 60 60 9 250 250 0 13.2000 124.400 4 68 970 13.0000 124.500 T 65 975 12.9000 124.300 4 65 20 287
1989279N07151 1989 111 WP MM DAN 1989-10-10 15:00:00 TS 13.2935 123.413 main 0 0 PPPP______P___ WP291989 13.1844 123.450 65 -1 13.3994 123.249 4 60 975 9 60 60 9 250 250 13.4291 123.422 4 68 970 13.2771 123.557 T 65 975 13.1774 123.390 4 65 19 286
1989279N07151 1989 111 WP MM DAN 1989-10-10 18:00:00 TS 13.5567 122.460 60 975 tokyo main 0 0 OOOO______P___ jtwc_wp WP291989 13.5000 122.600 65 -1 13.6000 122.200 4 60 975 9 60 60 9 250 250 0 13.6000 122.400 4 68 970 13.6000 122.600 T 65 975 13.4835 122.498 4 65 20 286
1989279N07151 1989 111 WP MM DAN 1989-10-10 21:00:00 TS 13.8692 121.413 main 0 0 PPPP______P___ WP291989 13.8198 121.665 65 -1 13.9203 121.048 4 62 972 9 60 60 9 275 275 13.7558 121.147 4 68 970 14.0273 121.600 T 62 977 13.8229 121.608 4 65 21 289
1989279N07151 1989 111 WP MM DAN 1989-10-11 00:00:00 TS 14.2400 120.400 65 970 tokyo main 21 21 OOOO______O___ jtwc_wp WP291989 14.2000 120.700 65 -1 14.3000 120.000 5 65 970 9 60 60 9 300 300 0 14.0000 120.000 4 68 970 14.5000 120.600 STS 60 980 14.2000 120.700 4 65 20 294
1989279N07151 1989 111 WP MM DAN 1989-10-11 03:00:00 TS 14.6802 119.532 main 65 65 PPPP______P___ WP291989 14.6920 119.757 62 -1 14.6765 119.254 5 65 970 9 70 70 9 300 300 14.4237 119.297 4 68 970 14.9422 119.627 STS 60 980 14.6667 119.724 4 63 19 300
1989279N07151 1989 111 WP MM DAN 1989-10-11 06:00:00 TS 15.1720 118.706 65 970 tokyo main 130 130 OOOO______P___ jtwc_wp WP291989 15.2000 118.800 60 -1 15.1000 118.600 5 65 970 9 80 80 9 300 300 0 15.0000 118.700 4 68 970 15.4000 118.700 STS 60 980 15.1600 118.730 4 62 20 302
1989279N07151 1989 111 WP MM DAN 1989-10-11 09:00:00 TS 15.7278 117.826 main 206 204 PPPP______P___ WP291989 15.6449 117.785 60 -1 15.6372 117.830 5 65 970 9 80 80 9 325 325 15.7671 117.911 4 68 970 15.9667 117.858 STS 60 980 15.6231 117.746 4 61 20 300
1989279N07151 1989 111 WP MM DAN 1989-10-11 12:00:00 TS 16.1800 116.920 65 970 tokyo main 300 300 OOOO______O___ jtwc_wp WP291989 16.0000 116.800 60 -1 16.1000 117.000 5 65 970 9 80 80 9 350 350 0 16.4000 117.000 4 68 970 16.4000 117.000 STS 60 980 16.0000 116.800 2 60 19 290
1989279N07151 1989 111 WP MM DAN 1989-10-11 15:00:00 TS 16.3621 115.963 main 397 397 PPPP______P___ WP291989 16.2520 115.920 60 -1 16.3175 116.099 5 65 970 9 80 80 9 350 350 16.5557 115.919 4 68 970 16.4678 115.984 STS 65 975 16.2174 115.893 2 61 18 277
1989279N07151 1989 111 WP MM DAN 1989-10-11 18:00:00 TS 16.4093 115.047 65 970 tokyo main 504 477 OOOO______P___ jtwc_wp WP291989 16.4000 115.100 60 -1 16.4000 115.200 5 65 970 9 80 80 9 350 350 0 16.5000 114.900 4 68 970 16.4000 115.000 T 70 970 16.3464 115.035 2 62 16 273
1989279N07151 1989 111 WP MM DAN 1989-10-11 21:00:00 TS 16.4596 114.248 main 469 417 PPPP______P___ WP291989 16.4649 114.262 62 -1 16.4648 114.362 5 67 967 9 80 80 9 350 350 16.4991 114.190 4 68 970 16.4420 114.190 T 70 970 16.4272 114.234 2 63 14 274
1989279N07151 1989 111 WP MM DAN 1989-10-12 00:00:00 TS 16.5000 113.540 70 965 tokyo main 409 353 OOOO______O___ jtwc_wp WP291989 16.5000 113.500 65 -1 16.5000 113.600 5 70 965 9 80 80 9 350 350 0 16.5000 113.600 4 68 970 16.5000 113.500 T 70 970 16.5000 113.500 4 65 13 274
1989279N07151 1989 111 WP MM DAN 1989-10-12 03:00:00 TS 16.5615 112.882 main 353 309 PPPP______P___ WP291989 16.5845 112.870 67 -1 16.5423 112.905 5 70 965 9 80 80 9 325 325 16.5350 112.928 4 72 965 16.5347 112.870 T 72 965 16.6111 112.839 4 66 12 277
1989279N07151 1989 111 WP MM DAN 1989-10-12 06:00:00 TS 16.6451 112.288 70 965 tokyo main 309 268 OOOO______P___ jtwc_wp WP291989 16.7000 112.300 70 -1 16.6000 112.300 5 70 965 9 80 80 9 300 300 0 16.6000 112.300 4 77 960 16.6000 112.300 T 75 960 16.7254 112.239 4 67 11 280
1989279N07151 1989 111 WP MM DAN 1989-10-12 09:00:00 TS 16.7461 111.747 main 262 210 PPPP______P___ WP291989 16.8348 111.707 70 -1 16.6620 111.800 5 72 962 9 85 85 9 300 300 16.6620 111.800 4 77 960 16.7197 111.757 T 77 957 16.8520 111.670 4 68 11 284
1989279N07151 1989 111 WP MM DAN 1989-10-12 12:00:00 TS 16.9000 111.200 75 960 tokyo main 210 155 OOOO______O___ jtwc_wp WP291989 17.0000 111.100 70 -1 16.8000 111.300 5 75 960 9 90 90 9 300 300 0 16.8000 111.300 4 77 960 16.9000 111.200 T 80 955 17.0000 111.100 4 70 12 289
1989279N07151 1989 111 WP MM DAN 1989-10-12 15:00:00 TS 17.1405 110.572 main 155 91 PPPP______P___ WP291989 17.1924 110.450 67 -1 17.0849 110.680 5 75 960 9 90 90 9 300 300 17.0849 110.680 4 77 960 17.1499 110.565 T 77 957 17.1901 110.487 4 68 13 292
1989279N07151 1989 111 WP MM DAN 1989-10-12 18:00:00 TS 17.3998 109.913 75 960 tokyo main 91 67 OOOO______P___ jtwc_wp WP291989 17.4000 109.800 65 -1 17.4000 110.000 5 75 960 9 90 90 9 300 300 0 17.4000 110.000 4 77 960 17.4000 109.900 T 75 960 17.3992 109.865 4 67 13 290
1989279N07151 1989 111 WP MM DAN 1989-10-12 21:00:00 TS 17.6066 109.256 main 70 70 PPPP______P___ WP291989 17.6072 109.200 65 -1 17.6300 109.292 5 72 962 9 85 85 9 275 275 17.6300 109.292 4 77 960 17.5572 109.257 T 75 960 17.6088 109.236 4 66 13 287
1989279N07151 1989 111 WP MM DAN 1989-10-13 00:00:00 TS 17.7800 108.600 70 965 tokyo main 79 79 OOOO______O___ jtwc_wp WP291989 17.8000 108.600 65 -1 17.8000 108.600 5 70 965 9 80 80 9 250 250 0 17.8000 108.600 4 77 960 17.7000 108.600 T 75 960 17.8000 108.600 4 65 13 285
1989279N07151 1989 111 WP MM DAN 1989-10-13 03:00:00 TS 17.9274 107.958 main 99 95 PPPP______P___ WP291989 17.9649 107.957 65 -1 17.9071 107.992 5 67 967 9 75 75 9 225 225 17.9071 107.992 4 72 965 17.9075 107.893 T 70 965 17.9505 107.956 4 62 12 283
1989279N07151 1989 111 WP MM DAN 1989-10-13 06:00:00 TS 18.0560 107.321 65 970 tokyo main 87 33 OOOO______P___ jtwc_wp WP291989 18.1000 107.300 65 -1 18.0000 107.400 5 65 970 9 70 70 9 200 200 0 18.0000 107.400 4 68 970 18.1000 107.200 T 65 970 18.0801 107.306 4 60 12 282
1989279N07151 1989 111 WP MM DAN 1989-10-13 09:00:00 TS 18.1833 106.675 main 33 0 PPPP______P___ WP291989 18.2073 106.650 60 -1 18.1500 106.743 5 62 972 9 70 70 9 200 200 18.1500 106.743 4 63 972 18.2147 106.585 T 62 972 18.1946 106.653 4 57 12 281
1989279N07151 1989 111 WP MM DAN 1989-10-13 12:00:00 TS 18.3000 106.047 60 975 tokyo main 0 0 OOOO______O___ jtwc_wp WP291989 18.3000 106.000 55 -1 18.3000 106.100 4 60 975 9 70 70 9 200 200 0 18.3000 106.100 3 58 975 18.3000 106.000 STS 60 975 18.3000 106.000 2 55 11 281
1989279N07151 1989 111 WP MM DAN 1989-10-13 15:00:00 TS 18.3986 105.506 main 0 0 PPPP______P___ WP291989 18.3979 105.350 42 -1 18.3990 105.602 4 52 982 9 9 175 175 18.3987 105.617 3 53 980 18.3955 105.405 STS 50 982 18.4013 105.349 2 42 11 281
1989279N07151 1989 111 WP MM DAN 1989-10-13 18:00:00 TS 18.5000 104.920 45 990 tokyo main 0 0 OOOO______O___ jtwc_wp WP291989 18.5000 104.700 30 -1 18.5000 105.000 3 45 990 0 9 150 150 0 18.5000 105.000 3 48 985 18.5000 104.800 TS 40 990 18.5000 104.700 1 30 14 280
1989279N07151 1989 111 WP MM DAN 1989-10-13 21:00:00 TS 18.6469 104.050 main 0 0 _PP___________ WP291989 -1 18.6504 104.068 3 994 0 9 18.6400 104.016 3 38 990 TS 1 19 279
1989279N07151 1989 111 WP MM DAN 1989-10-14 00:00:00 TS 18.8000 102.950 998 tokyo main 0 0 _OO___________ -1 18.8000 103.000 2 998 0 0 0 18.8000 102.800 1 29 995 20 278
1989279N07151 1989 111 WP MM DAN 1989-10-14 03:00:00 TS 18.9130 101.978 main 0 0 _P____________ -1 18.9130 101.978 2 999 0 0 1 19 276
1989279N07151 1989 111 WP MM DAN 1989-10-14 06:00:00 TS 19.0000 101.000 1000 tokyo main 0 _O____________ -1 19.0000 101.000 2 1000 0 0 0 19 275

デジタル台風データ・検索

IBTrACS Databaseについて

本データベースは、米国NOAAが公開する1842年以降の世界の熱帯低気圧のベストトラックデータアーカイブInternational Best Track Archive for Climate Stewardship (IBTrACS)を、ウェブで閲覧しやすい形式に変換したものです。

最終更新日:2021-10-19